Time;durP1;ratioP1;P1;durP2;ratioP2;P2;SDS_P1;SDS_P2;PMS_P1;PMS_P2;Temp;Humidity;BMP_temperature;BMP_pressure;BME280_temperature;BME280_humidity;BME280_pressure;Samples;Min_cycle;Max_cycle;Signal;HPM_P1;HPM_P2
2023/05/16 00:00:52;;;;;;;13.10;11.77;;;;;;;;;;4997493;28;20479;-86
2023/05/16 00:03:19;;;;;;;14.38;10.93;;;;;;;;;;4997308;28;20046;-86
2023/05/16 00:05:47;;;;;;;13.20;11.85;;;;;;;;;;4997095;28;20068;-87
2023/05/16 00:08:14;;;;;;;12.20;10.85;;;;;;;;;;5014523;28;20049;-86
2023/05/16 00:10:41;;;;;;;11.38;10.18;;;;;;;;;;4997005;28;20053;-86
2023/05/16 00:13:08;;;;;;;11.40;9.93;;;;;;;;;;4997142;28;20046;-86
2023/05/16 00:15:37;;;;;;;11.98;10.68;;;;;;;;;;4996656;28;20052;-86
2023/05/16 00:18:04;;;;;;;12.40;10.60;;;;;;;;;;4997068;28;20052;-87
2023/05/16 00:20:31;;;;;;;12.93;10.63;;;;;;;;;;5014369;28;20056;-86
2023/05/16 00:23:00;;;;;;;11.98;10.82;;;;;;;;;;5014244;28;20410;-86
2023/05/16 00:25:27;;;;;;;15.80;11.48;;;;;;;;;;4996565;28;20054;-86
2023/05/16 00:27:55;;;;;;;12.18;10.90;;;;;;;;;;5014000;28;20077;-86
2023/05/16 00:30:22;;;;;;;12.13;10.77;;;;;;;;;;4996628;28;20053;-86
2023/05/16 00:32:52;;;;;;;14.48;11.23;;;;;;;;;;4996664;28;20056;-85
2023/05/16 00:35:20;;;;;;;13.55;11.57;;;;;;;;;;5013836;28;20112;-85
2023/05/16 00:37:47;;;;;;;15.02;12.60;;;;;;;;;;4996409;28;20417;-86
2023/05/16 00:40:14;;;;;;;13.80;11.95;;;;;;;;;;5013491;28;20395;-86
2023/05/16 00:42:41;;;;;;;13.07;11.50;;;;;;;;;;5013759;28;20045;-85
2023/05/16 00:45:09;;;;;;;11.60;10.50;;;;;;;;;;4996195;28;20089;-86
2023/05/16 00:47:36;;;;;;;11.85;10.68;;;;;;;;;;4996482;28;20046;-86
2023/05/16 00:50:04;;;;;;;12.18;10.80;;;;;;;;;;4996313;28;20058;-86
2023/05/16 00:52:32;;;;;;;12.55;11.35;;;;;;;;;;4996727;28;20050;-86
2023/05/16 00:55:00;;;;;;;16.58;12.25;;;;;;;;;;4996248;28;20050;-86
2023/05/16 00:57:27;;;;;;;16.73;12.10;;;;;;;;;;4996239;28;20474;-86
2023/05/16 00:59:54;;;;;;;14.75;12.73;;;;;;;;;;4996252;28;20049;-86
2023/05/16 01:02:22;;;;;;;15.23;13.30;;;;;;;;;;4996137;28;20137;-86
2023/05/16 01:04:50;;;;;;;15.25;12.52;;;;;;;;;;4995566;28;20058;-86
2023/05/16 01:07:18;;;;;;;15.75;12.63;;;;;;;;;;5012958;28;20054;-86
2023/05/16 01:09:45;;;;;;;16.13;13.02;;;;;;;;;;5012956;28;20528;-86
2023/05/16 01:12:19;;;;;;;16.27;13.02;;;;;;;;;;4996221;28;20053;-87
2023/05/16 01:15:05;;;;;;;13.77;11.77;;;;;;;;;;4995982;28;20062;-86
2023/05/16 01:17:38;;;;;;;14.15;12.70;;;;;;;;;;4996265;28;20076;-86
2023/05/16 01:20:14;;;;;;;12.50;11.20;;;;;;;;;;5013161;28;20057;-86
2023/05/16 01:22:50;;;;;;;13.15;11.32;;;;;;;;;;4996080;28;20057;-86
2023/05/16 01:25:32;;;;;;;12.90;11.38;;;;;;;;;;4995839;28;20089;-86
2023/05/16 01:27:59;;;;;;;14.63;12.35;;;;;;;;;;4996054;28;20112;-86
2023/05/16 01:30:26;;;;;;;13.00;11.80;;;;;;;;;;4995795;28;20058;-85
2023/05/16 01:32:53;;;;;;;14.02;12.43;;;;;;;;;;5013220;28;20054;-85
2023/05/16 01:35:20;;;;;;;14.77;12.80;;;;;;;;;;4995721;28;20414;-85
2023/05/16 01:37:55;;;;;;;13.85;12.63;;;;;;;;;;4995600;28;20164;-85
2023/05/16 01:40:34;;;;;;;14.07;12.55;;;;;;;;;;5013022;28;20056;-85
2023/05/16 01:43:04;;;;;;;19.48;12.15;;;;;;;;;;4995411;28;20050;-84
2023/05/16 01:45:34;;;;;;;12.18;10.93;;;;;;;;;;5012867;28;20081;-85
2023/05/16 01:48:13;;;;;;;16.08;11.55;;;;;;;;;;4995785;28;20046;-86
2023/05/16 01:50:43;;;;;;;14.60;12.60;;;;;;;;;;5012900;28;20061;-85
2023/05/16 01:53:16;;;;;;;15.82;12.77;;;;;;;;;;4995609;28;20414;-86
2023/05/16 01:55:48;;;;;;;13.25;11.95;;;;;;;;;;4995974;28;20100;-86
2023/05/16 01:58:16;;;;;;;14.82;13.27;;;;;;;;;;5012820;28;20145;-86
2023/05/16 02:00:44;;;;;;;14.60;13.10;;;;;;;;;;5013111;28;20050;-86
2023/05/16 02:03:11;;;;;;;15.10;13.45;;;;;;;;;;4995152;28;20107;-86
2023/05/16 02:05:38;;;;;;;14.98;13.38;;;;;;;;;;4995496;28;20054;-86
2023/05/16 02:08:07;;;;;;;15.68;14.07;;;;;;;;;;5007353;28;20471;-86
2023/05/16 02:10:34;;;;;;;18.25;15.90;;;;;;;;;;4993209;28;20046;-85
2023/05/16 02:13:04;;;;;;;17.42;15.45;;;;;;;;;;4975920;28;20050;-86
2023/05/16 02:15:32;;;;;;;17.13;15.05;;;;;;;;;;4993051;28;20078;-85
2023/05/16 02:17:59;;;;;;;18.90;16.27;;;;;;;;;;4992714;28;20054;-86
2023/05/16 02:20:26;;;;;;;19.33;16.00;;;;;;;;;;4977682;28;20058;-86
2023/05/16 02:22:53;;;;;;;18.40;14.95;;;;;;;;;;4979078;28;20069;-86
2023/05/16 02:25:21;;;;;;;16.65;14.00;;;;;;;;;;4979170;28;20487;-86
2023/05/16 02:27:48;;;;;;;19.95;14.30;;;;;;;;;;4996410;28;20046;-86
2023/05/16 02:30:15;;;;;;;16.65;14.98;;;;;;;;;;4979099;28;20046;-86
2023/05/16 02:32:43;;;;;;;21.45;17.13;;;;;;;;;;4996534;28;20047;-86
2023/05/16 02:35:11;;;;;;;19.30;15.55;;;;;;;;;;4979116;28;20046;-86
2023/05/16 02:37:38;;;;;;;18.88;15.48;;;;;;;;;;4979176;28;20054;-86
2023/05/16 02:40:06;;;;;;;24.42;17.75;;;;;;;;;;4996137;28;20061;-86
2023/05/16 02:42:34;;;;;;;19.20;16.40;;;;;;;;;;4978904;28;20146;-86
2023/05/16 02:45:01;;;;;;;23.95;17.60;;;;;;;;;;4978838;28;20067;-86
2023/05/16 02:47:28;;;;;;;23.92;18.98;;;;;;;;;;4978520;28;20054;-86
2023/05/16 02:49:56;;;;;;;25.20;19.00;;;;;;;;;;4996045;28;20050;-86
2023/05/16 02:52:23;;;;;;;25.58;20.55;;;;;;;;;;4978821;28;20484;-86
2023/05/16 02:54:50;;;;;;;25.45;20.70;;;;;;;;;;4995663;28;20502;-86
2023/05/16 02:57:37;;;;;;;22.05;18.02;;;;;;;;;;4995841;28;20499;-86
2023/05/16 03:00:05;;;;;;;21.25;18.63;;;;;;;;;;4978374;28;20060;-86
2023/05/16 03:02:32;;;;;;;18.27;16.45;;;;;;;;;;4978616;28;20490;-86
2023/05/16 03:05:00;;;;;;;20.58;18.27;;;;;;;;;;4978889;28;20077;-86
2023/05/16 03:07:27;;;;;;;23.35;19.20;;;;;;;;;;4978191;28;20141;-86
2023/05/16 03:09:54;;;;;;;19.60;17.52;;;;;;;;;;4978422;28;20050;-86
2023/05/16 03:12:21;;;;;;;23.10;19.10;;;;;;;;;;4978409;28;20054;-86
2023/05/16 03:14:48;;;;;;;24.40;20.90;;;;;;;;;;4995816;28;20137;-86
2023/05/16 03:17:15;;;;;;;20.40;16.60;;;;;;;;;;4978275;28;20046;-86
2023/05/16 03:19:43;;;;;;;16.02;14.52;;;;;;;;;;4978345;28;20057;-86
2023/05/16 03:22:10;;;;;;;17.83;16.02;;;;;;;;;;4978482;28;20064;-86
2023/05/16 03:24:37;;;;;;;18.63;14.85;;;;;;;;;;4978239;28;20133;-86
2023/05/16 03:27:05;;;;;;;15.30;13.80;;;;;;;;;;4978011;28;20073;-86
2023/05/16 03:29:32;;;;;;;15.50;13.00;;;;;;;;;;4995516;28;20057;-86
2023/05/16 03:31:59;;;;;;;15.57;13.93;;;;;;;;;;4994320;28;20077;-86
2023/05/16 03:34:27;;;;;;;16.10;14.40;;;;;;;;;;4995024;28;20046;-86
2023/05/16 03:36:54;;;;;;;13.38;11.90;;;;;;;;;;4977470;28;20064;-85
2023/05/16 03:39:21;;;;;;;14.00;12.25;;;;;;;;;;4978021;28;20054;-87
2023/05/16 03:41:49;;;;;;;13.02;11.52;;;;;;;;;;4977601;28;20158;-86
2023/05/16 03:44:16;;;;;;;14.70;13.05;;;;;;;;;;4977903;28;20057;-86
2023/05/16 03:46:43;;;;;;;15.52;12.73;;;;;;;;;;4994970;28;20054;-86
2023/05/16 03:49:10;;;;;;;14.18;12.82;;;;;;;;;;4994860;28;20382;-86
2023/05/16 03:51:37;;;;;;;13.80;12.40;;;;;;;;;;4995111;28;20054;-86
2023/05/16 03:54:05;;;;;;;14.68;12.60;;;;;;;;;;4994939;28;20073;-86
2023/05/16 03:56:32;;;;;;;14.77;13.38;;;;;;;;;;4977254;28;20403;-86
2023/05/16 03:58:59;;;;;;;13.15;11.95;;;;;;;;;;4994466;28;20060;-86
2023/05/16 04:01:27;;;;;;;12.18;10.98;;;;;;;;;;4977214;28;20046;-86
2023/05/16 04:03:54;;;;;;;11.93;10.68;;;;;;;;;;4976971;28;20133;-86
2023/05/16 04:06:21;;;;;;;11.15;10.18;;;;;;;;;;4977393;28;20062;-86
2023/05/16 04:08:49;;;;;;;11.38;10.23;;;;;;;;;;4994559;28;20136;-86
2023/05/16 04:11:16;;;;;;;12.93;10.70;;;;;;;;;;4977080;28;20042;-86
2023/05/16 04:13:43;;;;;;;13.13;11.82;;;;;;;;;;4994144;28;20058;-87
2023/05/16 04:16:11;;;;;;;14.85;12.93;;;;;;;;;;4994167;28;20182;-86
2023/05/16 04:18:39;;;;;;;11.82;10.63;;;;;;;;;;4993992;28;20443;-86
2023/05/16 04:21:06;;;;;;;13.98;11.93;;;;;;;;;;4994295;28;20046;-85
2023/05/16 04:23:33;;;;;;;16.70;10.02;;;;;;;;;;4994032;28;20446;-86
2023/05/16 04:26:03;;;;;;;10.23;9.27;;;;;;;;;;4993782;28;20074;-86
2023/05/16 04:28:31;;;;;;;15.60;10.15;;;;;;;;;;4993890;28;20046;-86
2023/05/16 04:30:58;;;;;;;12.05;10.10;;;;;;;;;;4977012;28;20388;-86
2023/05/16 04:33:25;;;;;;;21.08;10.40;;;;;;;;;;4994064;28;20055;-86
2023/05/16 04:35:53;;;;;;;11.60;10.02;;;;;;;;;;4976797;28;20476;-87
2023/05/16 04:38:21;;;;;;;19.02;11.25;;;;;;;;;;4976897;28;20052;-86
2023/05/16 04:40:51;;;;;;;10.35;9.35;;;;;;;;;;4976683;28;20046;-86
2023/05/16 04:43:19;;;;;;;9.75;8.77;;;;;;;;;;4961126;28;20053;-86
2023/05/16 04:45:46;;;;;;;8.95;8.25;;;;;;;;;;4976703;28;20050;-86
2023/05/16 04:48:14;;;;;;;9.63;8.82;;;;;;;;;;4993809;28;20046;-86
2023/05/16 04:50:41;;;;;;;9.82;8.60;;;;;;;;;;4993912;28;20050;-86
2023/05/16 04:53:09;;;;;;;9.10;8.30;;;;;;;;;;4993620;28;20057;-86
2023/05/16 04:55:36;;;;;;;10.27;8.98;;;;;;;;;;4976834;28;20047;-87
2023/05/16 04:58:03;;;;;;;11.52;8.40;;;;;;;;;;4993791;28;20387;-85
2023/05/16 05:00:30;;;;;;;13.90;8.73;;;;;;;;;;4993602;28;20061;-86
2023/05/16 05:02:58;;;;;;;15.18;8.63;;;;;;;;;;4976880;28;20054;-86
2023/05/16 05:05:25;;;;;;;10.90;8.15;;;;;;;;;;4976709;28;20050;-87
2023/05/16 05:07:53;;;;;;;7.85;7.25;;;;;;;;;;4993924;28;20125;-86
2023/05/16 05:10:20;;;;;;;12.52;8.88;;;;;;;;;;4976494;28;20054;-88
2023/05/16 05:12:48;;;;;;;11.38;9.95;;;;;;;;;;4993772;28;20054;-89
2023/05/16 05:15:15;;;;;;;10.27;9.30;;;;;;;;;;4976434;28;20068;-87
2023/05/16 05:17:42;;;;;;;10.15;9.02;;;;;;;;;;4993531;28;20050;-87
2023/05/16 05:20:10;;;;;;;15.82;9.88;;;;;;;;;;4976625;28;20051;-86
2023/05/16 05:22:37;;;;;;;17.85;13.80;;;;;;;;;;4976616;28;20047;-89
2023/05/16 05:25:05;;;;;;;26.77;15.55;;;;;;;;;;4976454;28;20061;-88
2023/05/16 05:27:32;;;;;;;19.02;16.98;;;;;;;;;;4994102;28;20050;-89
2023/05/16 05:29:59;;;;;;;17.65;15.88;;;;;;;;;;4993583;28;20061;-87
2023/05/16 05:32:27;;;;;;;18.25;16.27;;;;;;;;;;4976346;28;20074;-88
2023/05/16 05:34:54;;;;;;;17.35;14.68;;;;;;;;;;4976479;28;20058;-88
2023/05/16 05:37:22;;;;;;;18.17;14.85;;;;;;;;;;4976425;28;20065;-86
2023/05/16 05:39:49;;;;;;;29.20;15.23;;;;;;;;;;4976058;28;20411;-87
2023/05/16 05:42:16;;;;;;;14.70;13.30;;;;;;;;;;4976451;28;20051;-88
2023/05/16 05:44:44;;;;;;;13.63;12.23;;;;;;;;;;4976412;28;20057;-89
2023/05/16 05:47:11;;;;;;;14.35;12.07;;;;;;;;;;4993456;28;20072;-87
2023/05/16 05:49:38;;;;;;;14.73;13.25;;;;;;;;;;4976163;28;20072;-87
2023/05/16 05:52:06;;;;;;;14.85;13.25;;;;;;;;;;4993540;28;20050;-88
2023/05/16 05:54:33;;;;;;;13.50;12.20;;;;;;;;;;4977207;28;20046;-90
2023/05/16 05:57:01;;;;;;;15.65;12.55;;;;;;;;;;4980522;28;20082;-87
2023/05/16 05:59:28;;;;;;;15.07;12.13;;;;;;;;;;4980010;28;20053;-88
2023/05/16 06:01:55;;;;;;;15.05;11.93;;;;;;;;;;4980314;28;20050;-87
2023/05/16 06:04:23;;;;;;;19.00;12.27;;;;;;;;;;4980292;28;20050;-92
2023/05/16 06:06:50;;;;;;;19.13;11.38;;;;;;;;;;4979871;28;20058;-88
2023/05/16 06:09:17;;;;;;;14.63;11.63;;;;;;;;;;4997287;28;20129;-89
2023/05/16 06:11:51;;;;;;;12.98;11.43;;;;;;;;;;4980227;28;20518;-95
2023/05/16 06:14:18;;;;;;;;;;;;;;;;;;4980349;28;20081;-90
2023/05/16 06:16:45;;;;;;;20.23;11.77;;;;;;;;;;4979950;28;19928;-89
2023/05/16 06:19:14;;;;;;;11.65;10.18;;;;;;;;;;4979946;28;20057;-88
2023/05/16 06:21:43;;;;;;;23.35;17.98;;;;;;;;;;4980100;28;20450;-88
2023/05/16 06:24:11;;;;;;;122.82;64.05;;;;;;;;;;4979953;28;20042;-87
2023/05/16 06:26:38;;;;;;;13.32;11.55;;;;;;;;;;4979939;28;20084;-86
2023/05/16 06:29:05;;;;;;;12.40;11.20;;;;;;;;;;4979598;28;20053;-87
2023/05/16 06:31:32;;;;;;;12.20;10.90;;;;;;;;;;4979694;28;20049;-88
2023/05/16 06:34:00;;;;;;;11.23;9.90;;;;;;;;;;4979910;28;20074;-87
2023/05/16 06:36:27;;;;;;;12.55;11.25;;;;;;;;;;4981068;28;20130;-90
2023/05/16 06:38:55;;;;;;;13.10;10.40;;;;;;;;;;4979673;28;20058;-86
2023/05/16 06:41:22;;;;;;;13.10;10.00;;;;;;;;;;4979129;28;20499;-86
2023/05/16 06:43:49;;;;;;;11.18;9.63;;;;;;;;;;4979613;28;20380;-86
2023/05/16 06:46:16;;;;;;;12.65;9.20;;;;;;;;;;4996255;28;20526;-87
2023/05/16 06:48:43;;;;;;;12.18;10.27;;;;;;;;;;4979592;28;20125;-90
2023/05/16 06:51:11;;;;;;;10.77;9.15;;;;;;;;;;4979369;28;20054;-87
2023/05/16 06:53:38;;;;;;;11.20;9.65;;;;;;;;;;4979305;28;20058;-87
2023/05/16 06:56:05;;;;;;;10.45;9.32;;;;;;;;;;4996386;28;20109;-88
2023/05/16 06:58:35;;;;;;;9.75;8.73;;;;;;;;;;4979826;28;20101;-91
2023/05/16 07:01:03;;;;;;;13.73;9.18;;;;;;;;;;4978994;28;20050;-88
2023/05/16 07:03:30;;;;;;;8.85;8.02;;;;;;;;;;4979042;28;20069;-88
2023/05/16 07:05:58;;;;;;;9.50;8.48;;;;;;;;;;4978952;28;20069;-88
2023/05/16 07:08:25;;;;;;;9.77;8.73;;;;;;;;;;4979434;28;20054;-88
2023/05/16 07:10:52;;;;;;;11.00;7.75;;;;;;;;;;4996377;28;20090;-89
2023/05/16 07:13:20;;;;;;;12.20;8.07;;;;;;;;;;4979133;28;20057;-88
2023/05/16 07:15:47;;;;;;;9.15;7.65;;;;;;;;;;4979147;28;20057;-88
2023/05/16 07:18:14;;;;;;;8.48;7.68;;;;;;;;;;4995632;28;20138;-88
2023/05/16 07:20:42;;;;;;;8.38;7.25;;;;;;;;;;4978135;28;20125;-88
2023/05/16 07:23:09;;;;;;;8.43;6.93;;;;;;;;;;4978243;28;20553;-87
2023/05/16 07:25:37;;;;;;;9.68;7.35;;;;;;;;;;4995461;28;20050;-88
2023/05/16 07:28:04;;;;;;;8.35;6.40;;;;;;;;;;4978594;28;20042;-88
2023/05/16 07:30:32;;;;;;;10.07;7.57;;;;;;;;;;4978640;28;20058;-89
2023/05/16 07:32:59;;;;;;;16.92;8.50;;;;;;;;;;4978787;28;20104;-89
2023/05/16 07:35:26;;;;;;;13.48;11.35;;;;;;;;;;4978549;28;20046;-89
2023/05/16 07:37:54;;;;;;;21.33;8.05;;;;;;;;;;4978712;28;20050;-89
2023/05/16 07:40:24;;;;;;;13.10;8.70;;;;;;;;;;4978360;28;20050;-89
2023/05/16 07:42:52;;;;;;;15.15;12.32;;;;;;;;;;4978684;28;20508;-89
2023/05/16 07:45:19;;;;;;;8.90;7.90;;;;;;;;;;4978276;28;20085;-87
2023/05/16 07:47:46;;;;;;;8.23;7.53;;;;;;;;;;4978363;28;20046;-88
2023/05/16 07:50:14;;;;;;;18.25;7.93;;;;;;;;;;4978352;28;20050;-89
2023/05/16 07:52:41;;;;;;;8.70;7.88;;;;;;;;;;4978339;28;20451;-91
2023/05/16 07:55:08;;;;;;;10.23;9.13;;;;;;;;;;4978634;28;20050;-89
2023/05/16 07:57:36;;;;;;;9.00;8.10;;;;;;;;;;4978406;28;20112;-88
2023/05/16 08:00:03;;;;;;;12.15;8.85;;;;;;;;;;4978255;28;20054;-89
2023/05/16 08:02:31;;;;;;;10.63;7.38;;;;;;;;;;4978284;28;20050;-89
2023/05/16 08:04:58;;;;;;;9.40;7.85;;;;;;;;;;4978152;28;20054;-90
2023/05/16 08:07:26;;;;;;;8.07;7.38;;;;;;;;;;4977818;28;20061;-88
2023/05/16 08:09:53;;;;;;;7.70;7.00;;;;;;;;;;4990448;28;20052;-88
2023/05/16 08:12:20;;;;;;;9.25;8.30;;;;;;;;;;4997383;28;20141;-89
2023/05/16 08:14:47;;;;;;;11.20;9.02;;;;;;;;;;4997093;28;20565;-91
2023/05/16 08:17:15;;;;;;;9.32;8.15;;;;;;;;;;4997537;28;20062;-90
2023/05/16 08:19:42;;;;;;;9.93;8.80;;;;;;;;;;4997579;28;20149;-90
2023/05/16 08:22:09;;;;;;;10.00;8.48;;;;;;;;;;4996938;28;20053;-91
2023/05/16 08:24:40;;;;;;;9.77;8.75;;;;;;;;;;4997538;28;20045;-90
2023/05/16 08:27:07;;;;;;;11.00;8.40;;;;;;;;;;4997172;28;20053;-92
2023/05/16 08:29:35;;;;;;;11.90;8.57;;;;;;;;;;4997024;28;20088;-88
2023/05/16 08:32:02;;;;;;;9.48;8.55;;;;;;;;;;4997195;28;20070;-92
2023/05/16 08:34:33;;;;;;;9.50;7.68;;;;;;;;;;4996917;28;20107;-89
2023/05/16 08:37:00;;;;;;;11.93;7.40;;;;;;;;;;4996876;28;20046;-90
2023/05/16 08:39:29;;;;;;;16.88;7.25;;;;;;;;;;4996830;28;20050;-89
2023/05/16 08:41:57;;;;;;;18.85;8.10;;;;;;;;;;4996144;28;20089;-89
2023/05/16 08:44:25;;;;;;;16.45;7.82;;;;;;;;;;5013902;28;20410;-89
2023/05/16 08:46:53;;;;;;;7.22;6.35;;;;;;;;;;5014235;28;20081;-89
2023/05/16 08:49:20;;;;;;;8.48;6.93;;;;;;;;;;4996840;28;20482;-89
2023/05/16 08:51:50;;;;;;;7.78;5.97;;;;;;;;;;4996769;28;20077;-88
2023/05/16 08:54:18;;;;;;;6.38;5.75;;;;;;;;;;5013739;28;20054;-89
2023/05/16 08:56:47;;;;;;;6.07;5.47;;;;;;;;;;5014140;28;20046;-89
2023/05/16 08:59:14;;;;;;;6.90;5.55;;;;;;;;;;4996637;28;20442;-88
2023/05/16 09:01:41;;;;;;;4.93;4.43;;;;;;;;;;4996446;28;20112;-88
2023/05/16 09:04:09;;;;;;;5.72;5.03;;;;;;;;;;4996356;28;20502;-86
2023/05/16 09:06:37;;;;;;;5.47;4.97;;;;;;;;;;4995871;28;20058;-87
2023/05/16 09:09:06;;;;;;;5.90;4.22;;;;;;;;;;4996442;28;20050;-89
2023/05/16 09:11:34;;;;;;;6.03;5.30;;;;;;;;;;4996057;28;20058;-86
2023/05/16 09:14:04;;;;;;;5.63;4.75;;;;;;;;;;5013136;28;20050;-90
2023/05/16 09:16:32;;;;;;;5.13;4.70;;;;;;;;;;4996107;28;20065;-92
2023/05/16 09:19:00;;;;;;;11.48;4.88;;;;;;;;;;4996130;28;20081;-89
2023/05/16 09:21:30;;;;;;;6.00;4.60;;;;;;;;;;4995761;28;20054;-89
2023/05/16 09:24:04;;;;;;;6.97;4.40;;;;;;;;;;4996250;28;20050;-89
2023/05/16 09:26:36;;;;;;;5.03;4.53;;;;;;;;;;4996457;28;20108;-88
2023/05/16 09:29:11;;;;;;;3.58;3.35;;;;;;;;;;4996686;28;20554;-89
2023/05/16 09:31:38;;;;;;;7.00;4.35;;;;;;;;;;5000171;28;20145;-88
2023/05/16 09:34:11;;;;;;;11.52;5.07;;;;;;;;;;5000097;28;20125;-89
2023/05/16 09:36:38;;;;;;;6.30;4.77;;;;;;;;;;5000085;28;20049;-87
2023/05/16 09:39:08;;;;;;;7.10;4.32;;;;;;;;;;4999960;28;20065;-88
2023/05/16 09:41:35;;;;;;;5.70;4.35;;;;;;;;;;4999755;28;20081;-89
2023/05/16 09:44:05;;;;;;;3.95;3.55;;;;;;;;;;5017040;28;20479;-89
2023/05/16 09:46:36;;;;;;;4.40;3.65;;;;;;;;;;4999920;28;20076;-88
2023/05/16 09:49:04;;;;;;;8.85;3.83;;;;;;;;;;5000212;28;20053;-89
2023/05/16 09:51:32;;;;;;;4.65;3.53;;;;;;;;;;4999717;28;20084;-89
2023/05/16 09:53:59;;;;;;;3.97;3.65;;;;;;;;;;4999624;28;20054;-90
2023/05/16 09:56:28;;;;;;;4.57;3.70;;;;;;;;;;4999786;28;20046;-89
2023/05/16 09:58:56;;;;;;;4.10;3.75;;;;;;;;;;4999055;28;20172;-89
2023/05/16 10:01:24;;;;;;;3.70;3.40;;;;;;;;;;4999387;28;20169;-89
2023/05/16 10:03:52;;;;;;;6.03;3.92;;;;;;;;;;4999618;28;20058;-87
2023/05/16 10:06:19;;;;;;;7.53;4.05;;;;;;;;;;5016575;28;20519;-87
2023/05/16 10:08:47;;;;;;;4.85;3.30;;;;;;;;;;5016859;28;20050;-89
2023/05/16 10:11:15;;;;;;;3.63;3.33;;;;;;;;;;5016469;28;20054;-89
2023/05/16 10:13:47;;;;;;;4.05;3.47;;;;;;;;;;4998964;28;20096;-90
2023/05/16 10:16:15;;;;;;;5.45;3.42;;;;;;;;;;4999191;28;20050;-90
2023/05/16 10:18:43;;;;;;;5.72;4.03;;;;;;;;;;4998806;28;20078;-90
2023/05/16 10:21:14;;;;;;;4.03;3.28;;;;;;;;;;4998983;28;20137;-90
2023/05/16 10:23:42;;;;;;;3.33;3.13;;;;;;;;;;4999024;28;20045;-90
2023/05/16 10:26:12;;;;;;;3.55;3.10;;;;;;;;;;4998980;28;20049;-89
2023/05/16 10:28:40;;;;;;;5.60;2.80;;;;;;;;;;4999087;28;20486;-88
2023/05/16 10:31:08;;;;;;;4.97;3.30;;;;;;;;;;4998963;28;20050;-89
2023/05/16 10:33:35;;;;;;;4.15;3.22;;;;;;;;;;4998621;28;20096;-89
2023/05/16 10:36:04;;;;;;;4.18;3.15;;;;;;;;;;4999121;28;20088;-88
2023/05/16 10:38:31;;;;;;;8.23;3.22;;;;;;;;;;4999078;28;20474;-89
2023/05/16 10:40:59;;;;;;;2.35;2.15;;;;;;;;;;4998385;28;20064;-89
2023/05/16 10:43:27;;;;;;;2.60;2.50;;;;;;;;;;4998724;28;20050;-88
2023/05/16 10:45:55;;;;;;;3.05;2.35;;;;;;;;;;4998743;28;20045;-89
2023/05/16 10:48:33;;;;;;;3.38;2.28;;;;;;;;;;4998814;28;20069;-89
2023/05/16 10:51:01;;;;;;;1.83;1.73;;;;;;;;;;4998464;28;20123;-89
2023/05/16 10:53:29;;;;;;;7.80;2.42;;;;;;;;;;4998663;28;20046;-89
2023/05/16 10:56:00;;;;;;;2.30;2.10;;;;;;;;;;4998194;28;20080;-88
2023/05/16 10:58:31;;;;;;;2.15;2.05;;;;;;;;;;4998825;28;20057;-89
2023/05/16 11:01:18;;;;;;;2.08;1.73;;;;;;;;;;5016223;28;20081;-89
2023/05/16 11:04:12;;;;;;;3.42;2.30;;;;;;;;;;4998561;28;20054;-89
2023/05/16 11:06:42;;;;;;;3.20;2.65;;;;;;;;;;4996866;28;20064;-89
2023/05/16 11:09:12;;;;;;;5.03;2.35;;;;;;;;;;4996827;28;20080;-89
2023/05/16 11:11:43;;;;;;;3.55;2.20;;;;;;;;;;4998253;28;20081;-88
2023/05/16 11:14:25;;;;;;;2.35;2.03;;;;;;;;;;4998869;28;20072;-88
2023/05/16 11:16:59;;;;;;;9.02;2.53;;;;;;;;;;5015174;28;20088;-90
2023/05/16 11:19:45;;;;;;;2.30;1.95;;;;;;;;;;5015778;28;20054;-88
2023/05/16 11:22:19;;;;;;;2.20;1.77;;;;;;;;;;4997788;28;20053;-90
2023/05/16 11:25:04;;;;;;;3.42;1.92;;;;;;;;;;4997950;28;20045;-89
2023/05/16 11:27:32;;;;;;;2.17;1.55;;;;;;;;;;4997846;28;20064;-90
2023/05/16 11:30:10;;;;;;;2.15;1.60;;;;;;;;;;5015588;28;20474;-88
2023/05/16 11:32:38;;;;;;;3.33;1.67;;;;;;;;;;4997767;28;20554;-90
2023/05/16 11:35:07;;;;;;;2.05;1.80;;;;;;;;;;4997689;28;20076;-89
2023/05/16 11:37:37;;;;;;;7.20;1.70;;;;;;;;;;4998148;28;20117;-89
2023/05/16 11:40:08;;;;;;;1.40;1.30;;;;;;;;;;4997407;28;20104;-89
2023/05/16 11:42:36;;;;;;;3.25;2.58;;;;;;;;;;4997640;28;20049;-89
2023/05/16 11:45:08;;;;;;;2.90;1.70;;;;;;;;;;4997647;28;20073;-90
2023/05/16 11:47:37;;;;;;;2.95;1.58;;;;;;;;;;4997555;28;20053;-88
2023/05/16 11:50:12;;;;;;;2.33;1.52;;;;;;;;;;4997569;28;20562;-89
2023/05/16 11:52:42;;;;;;;1.67;1.20;;;;;;;;;;4996254;28;20462;-89
2023/05/16 11:55:10;;;;;;;2.38;1.27;;;;;;;;;;4997411;28;20120;-90
2023/05/16 11:57:41;;;;;;;3.53;1.77;;;;;;;;;;5015024;28;20050;-88
2023/05/16 12:00:18;;;;;;;2.85;1.70;;;;;;;;;;4997517;28;20153;-89
2023/05/16 12:02:49;;;;;;;4.43;1.60;;;;;;;;;;4997242;28;20050;-88
2023/05/16 12:05:17;;;;;;;2.45;1.55;;;;;;;;;;4997425;28;20058;-89
2023/05/16 12:07:47;;;;;;;4.93;2.15;;;;;;;;;;4997575;28;20060;-89
2023/05/16 12:10:15;;;;;;;4.55;1.75;;;;;;;;;;4997263;28;20058;-89
2023/05/16 12:12:48;;;;;;;3.92;1.83;;;;;;;;;;4996903;28;20073;-88
2023/05/16 12:15:16;;;;;;;2.72;1.73;;;;;;;;;;4997187;28;20050;-89
2023/05/16 12:17:43;;;;;;;4.75;1.67;;;;;;;;;;4996999;28;20045;-87
2023/05/16 12:20:13;;;;;;;5.82;1.80;;;;;;;;;;4997403;28;20050;-88
2023/05/16 12:22:40;;;;;;;2.83;1.75;;;;;;;;;;4996772;28;20144;-87
2023/05/16 12:25:26;;;;;;;3.97;1.83;;;;;;;;;;4997239;28;20093;-87
2023/05/16 12:27:55;;;;;;;4.82;2.00;;;;;;;;;;4997037;28;20052;-88
2023/05/16 12:30:23;;;;;;;10.68;2.45;;;;;;;;;;4996846;28;20060;-88
2023/05/16 12:32:57;;;;;;;12.30;2.55;;;;;;;;;;4996785;28;20084;-89
2023/05/16 12:35:32;;;;;;;7.53;2.70;;;;;;;;;;4997058;28;20115;-88
2023/05/16 12:37:59;;;;;;;12.93;1.80;;;;;;;;;;4997025;28;20054;-87
2023/05/16 12:40:30;;;;;;;5.15;1.52;;;;;;;;;;4996719;28;20049;-88
2023/05/16 12:42:57;;;;;;;6.20;1.90;;;;;;;;;;4997151;28;20050;-88
2023/05/16 12:45:26;;;;;;;3.22;1.77;;;;;;;;;;4999618;28;20054;-87
2023/05/16 12:47:54;;;;;;;1.83;1.70;;;;;;;;;;4996873;28;20049;-90
2023/05/16 12:50:21;;;;;;;3.60;1.52;;;;;;;;;;4996793;28;20053;-88
2023/05/16 12:52:50;;;;;;;4.20;1.60;;;;;;;;;;4996717;28;20046;-87
2023/05/16 12:55:18;;;;;;;9.32;1.92;;;;;;;;;;5013693;28;20533;-90
2023/05/16 12:57:48;;;;;;;3.95;1.70;;;;;;;;;;4997199;28;20133;-89
2023/05/16 13:00:17;;;;;;;5.93;2.70;;;;;;;;;;4996606;28;20061;-88
2023/05/16 13:02:45;;;;;;;1.95;1.58;;;;;;;;;;4996124;28;20081;-89
2023/05/16 13:05:13;;;;;;;3.85;1.90;;;;;;;;;;4995864;28;20116;-89
2023/05/16 13:07:40;;;;;;;2.88;1.30;;;;;;;;;;4996866;28;20494;-88
2023/05/16 13:10:11;;;;;;;6.75;2.05;;;;;;;;;;4996042;28;20511;-88
2023/05/16 13:12:39;;;;;;;3.35;1.70;;;;;;;;;;4996101;28;20049;-88
2023/05/16 13:15:07;;;;;;;6.38;1.70;;;;;;;;;;4996162;28;20108;-88
2023/05/16 13:17:35;;;;;;;5.68;1.55;;;;;;;;;;5013332;28;20058;-89
2023/05/16 13:20:13;;;;;;;8.98;4.07;;;;;;;;;;4996166;28;20137;-88
2023/05/16 13:22:41;;;;;;;60.03;28.23;;;;;;;;;;4996441;28;20050;-90
2023/05/16 13:25:09;;;;;;;6.97;2.22;;;;;;;;;;4996170;28;20050;-87
2023/05/16 13:27:36;;;;;;;7.68;2.60;;;;;;;;;;4996610;28;20054;-88
2023/05/16 13:30:04;;;;;;;6.63;1.75;;;;;;;;;;4995701;28;20479;-89
2023/05/16 13:32:31;;;;;;;9.07;4.82;;;;;;;;;;4996555;28;20053;-89
2023/05/16 13:34:59;;;;;;;9.57;5.28;;;;;;;;;;4996134;28;20050;-92
2023/05/16 13:37:26;;;;;;;8.50;4.28;;;;;;;;;;4996353;28;20486;-88
2023/05/16 13:39:54;;;;;;;10.95;5.40;;;;;;;;;;4996250;28;20046;-92
2023/05/16 13:42:22;;;;;;;7.13;2.15;;;;;;;;;;4996114;28;20116;-89
2023/05/16 13:44:49;;;;;;;8.40;3.95;;;;;;;;;;4996028;28;20053;-91
2023/05/16 13:47:16;;;;;;;10.68;5.95;;;;;;;;;;4996240;28;20108;-91
2023/05/16 13:49:44;;;;;;;8.30;2.20;;;;;;;;;;4996340;28;20049;-88
2023/05/16 13:52:11;;;;;;;3.15;1.58;;;;;;;;;;5013473;28;20058;-88
2023/05/16 13:54:40;;;;;;;7.18;1.83;;;;;;;;;;4996126;28;20104;-85
2023/05/16 13:57:07;;;;;;;25.67;15.40;;;;;;;;;;4995967;28;20048;-90
2023/05/16 13:59:34;;;;;;;8.70;5.22;;;;;;;;;;4996101;28;20459;-88
2023/05/16 14:02:04;;;;;;;5.07;1.60;;;;;;;;;;4996691;28;20101;-88
2023/05/16 14:04:32;;;;;;;8.27;2.17;;;;;;;;;;4995958;28;20553;-90
2023/05/16 14:06:59;;;;;;;4.72;1.60;;;;;;;;;;4996107;28;20061;-88
2023/05/16 14:09:26;;;;;;;4.28;1.88;;;;;;;;;;4996078;28;20564;-88
2023/05/16 14:11:54;;;;;;;7.13;1.92;;;;;;;;;;5013198;28;20053;-89
2023/05/16 14:14:21;;;;;;;4.75;1.42;;;;;;;;;;5013289;28;20061;-88
2023/05/16 14:16:48;;;;;;;9.15;1.98;;;;;;;;;;4999591;28;20046;-87
2023/05/16 14:19:16;;;;;;;7.53;1.33;;;;;;;;;;5000259;28;20092;-89
2023/05/16 14:21:45;;;;;;;8.27;1.38;;;;;;;;;;4999755;28;20129;-90
2023/05/16 14:24:13;;;;;;;6.90;1.27;;;;;;;;;;4999135;28;20046;-88
2023/05/16 14:26:40;;;;;;;10.05;1.77;;;;;;;;;;4999268;28;20069;-90
2023/05/16 14:29:07;;;;;;;22.30;4.38;;;;;;;;;;4999279;28;20058;-89
2023/05/16 14:31:35;;;;;;;7.85;1.92;;;;;;;;;;4999598;28;20053;-87
2023/05/16 14:34:03;;;;;;;8.25;1.90;;;;;;;;;;4999133;28;20064;-89
2023/05/16 14:36:30;;;;;;;13.07;2.05;;;;;;;;;;4999375;28;20050;-87
2023/05/16 14:38:58;;;;;;;3.50;1.20;;;;;;;;;;4998721;28;20073;-89